Xun Long 5 — BYGW — position and weather

sailwx.info

Track history (hours):
 
Tides and Currents Weather Stations Pressure Air Temp Water Temp Dewpoint Dewpoint Depression Visibility Wind Speed Wind Dir Waves Ship Positions

Xun Long 5

Last reported at 2016-Jul-29 11:32 UTC. Time now 2016-Jul-30 03:27 UTC.
Position N 22°28' E 113°51'.

Length 34 m; draft 1.4 m.

Type: High speed craft. MMSI: 413471870.

Date/timePositionNaut miles runAvg speedWind from/ knotsBaromVisibWave heightAir tempDewpointWater temp
2016-Jul-29 11:32N 22°28' E 113°51'1512.9
2016-Jul-29 10:22N 22°20' E 114°05'2 2.5
2016-Jul-29 09:33N 22°21' E 114°03'1110.8
2016-Jul-29 08:32N 22°29' E 113°55'1818.1
2016-Jul-29 07:33N 22°17' E 114°09'1515.0
2016-Jul-29 06:33N 22°23' E 113°54'5 5.1
2016-Jul-29 05:31N 22°29' E 113°55'0 0.1
2016-Jul-29 04:33N 22°29' E 113°55'1813.7
2016-Jul-29 03:16N 22°17' E 114°09'1621.5
2016-Jul-29 02:33N 22°24' E 113°54'11 8.5
2016-Jul-29 01:17N 22°20' E 114°05'2 2.6
2016-Jul-29 00:33N 22°19' E 114°07'1514.4
2016-Jul-28 23:33N 22°29' E 113°55'0 0.0
2016-Jul-28 22:33N 22°29' E 113°55'0 0.0
2016-Jul-28 21:27N 22°29' E 113°55'0 0.0
2016-Jul-28 20:32N 22°29' E 113°55'0 0.0
2016-Jul-28 19:32N 22°29' E 113°55'0 0.0
2016-Jul-28 17:27N 22°29' E 113°55'0 0.0
2016-Jul-28 16:33N 22°29' E 113°55'0 0.0
2016-Jul-28 15:33N 22°29' E 113°55'0 0.0
2016-Jul-28 14:32N 22°29' E 113°55'7 6.0
2016-Jul-28 13:25N 22°22' E 113°55'7 7.8
2016-Jul-28 12:33N 22°29' E 113°55'2110.7
2016-Jul-28 10:34N 22°13' E 113°40'2121.1
2016-Jul-28 09:33N 22°29' E 113°55'4 3.6
2016-Jul-28 08:33N 22°25' E 113°53'3 1.5
2016-Jul-28 06:25N 22°23' E 113°51'2 2.9
2016-Jul-28 05:33N 22°25' E 113°53'1 0.6
2016-Jul-28 03:31N 22°24' E 113°52'16 6.5
2016-Jul-28 01:07N 22°12' E 113°41'1627.3
2016-Jul-28 00:32N 22°24' E 113°52'5 4.9
2016-Jul-27 23:30N 22°29' E 113°55'0 0.0
2016-Jul-27 21:24N 22°29' E 113°55'0 0.0
2016-Jul-27 19:30N 22°29' E 113°55'0 0.0
2016-Jul-27 18:24N 22°29' E 113°55'0 0.0
2016-Jul-27 17:30N 22°29' E 113°55'0 0.0
2016-Jul-27 16:30N 22°29' E 113°55'0 0.0
2016-Jul-27 15:30N 22°29' E 113°55'0 0.0
2016-Jul-27 14:30N 22°29' E 113°55'0 0.0
2016-Jul-27 13:24N 22°29' E 113°55'0 0.0
2016-Jul-27 12:24N 22°29' E 113°55'0 0.0
2016-Jul-27 11:30N 22°29' E 113°55'0 0.0
2016-Jul-27 10:24N 22°29' E 113°55'0 0.0
2016-Jul-27 09:30N 22°29' E 113°55'4 4.7
2016-Jul-27 08:33N 22°25' E 113°53'1813.1
2016-Jul-27 07:09N 22°11' E 113°39'1825.1
2016-Jul-27 06:26N 22°24' E 113°52'7 8.0
2016-Jul-27 05:31N 22°19' E 113°47'11 9.2
2016-Jul-27 04:22N 22°11' E 113°39'1923.8
2016-Jul-27 03:33N 22°26' E 113°53'20 8.4
2016-Jul-27 01:11N 22°11' E 113°38'1827.0
2016-Jul-27 00:31N 22°24' E 113°52'5 5.4
2016-Jul-26 23:31N 22°29' E 113°55'0 0.0
2016-Jul-26 22:31N 22°29' E 113°55'0 0.0
2016-Jul-26 21:31N 22°29' E 113°55'0 0.0
2016-Jul-26 20:31N 22°29' E 113°55'0 0.0
2016-Jul-26 19:31N 22°29' E 113°55'0 0.0
2016-Jul-26 18:31N 22°29' E 113°55'0 0.0
2016-Jul-26 17:31N 22°29' E 113°55'0 0.0
2016-Jul-26 16:25N 22°29' E 113°55'0 0.0
2016-Jul-26 15:31N 22°29' E 113°55'0 0.0
2016-Jul-26 14:31N 22°29' E 113°55'0 0.0
2016-Jul-26 13:25N 22°29' E 113°55'0 0.0
2016-Jul-26 12:31N 22°29' E 113°55'0 0.4
2016-Jul-26 11:33N 22°28' E 113°55'5 2.1
2016-Jul-26 09:09N 22°24' E 113°52'4 7.5
2016-Jul-26 08:33N 22°28' E 113°55'20 9.4
2016-Jul-26 06:27N 22°13' E 113°40'2122.7
2016-Jul-26 05:33N 22°29' E 113°55'21 9.9
2016-Jul-26 03:26N 22°13' E 113°40'2121.3
2016-Jul-26 02:27N 22°29' E 113°55'10 9.9
2016-Jul-26 01:23N 22°21' E 114°02'6 7.1
2016-Jul-26 00:34N 22°18' E 114°08'1614.1
2016-Jul-25 23:25N 22°29' E 113°55'0 0.0
2016-Jul-25 22:31N 22°29' E 113°55'0 0.0
2016-Jul-25 21:31N 22°29' E 113°55'0 0.0
2016-Jul-25 20:31N 22°29' E 113°55'0 0.0
2016-Jul-25 19:31N 22°29' E 113°55'0 0.0
2016-Jul-25 18:19N 22°29' E 113°55'0 0.0
2016-Jul-25 17:25N 22°29' E 113°55'0 0.0
2016-Jul-25 15:31N 22°29' E 113°55'0 0.0
2016-Jul-25 14:29N 22°29' E 113°55'7 6.1
2016-Jul-25 13:23N 22°22' E 113°55'7 8.0
2016-Jul-25 12:33N 22°29' E 113°55'2110.4
2016-Jul-25 10:33N 22°13' E 113°40'2121.1
2016-Jul-25 09:33N 22°29' E 113°55'2 2.4
2016-Jul-25 08:33N 22°26' E 113°54'3 1.4
2016-Jul-25 06:23N 22°24' E 113°52'1 1.5
2016-Jul-25 05:33N 22°25' E 113°53'1913.9
2016-Jul-25 04:12N 22°11' E 113°39'1625.1
2016-Jul-25 03:33N 22°23' E 113°51'15 6.4
2016-Jul-25 01:13N 22°13' E 113°40'1827.3
2016-Jul-25 00:33N 22°25' E 113°53'4 3.2
2016-Jul-24 23:24N 22°29' E 113°55'0 0.0
2016-Jul-24 22:30N 22°29' E 113°55'0 0.0
2016-Jul-24 21:24N 22°29' E 113°55'0 0.0
2016-Jul-24 20:30N 22°29' E 113°55'0 0.0
2016-Jul-24 19:30N 22°29' E 113°55'0 0.0
2016-Jul-24 18:30N 22°29' E 113°55'0 0.0
2016-Jul-24 17:30N 22°29' E 113°55'0 0.0
2016-Jul-24 16:30N 22°29' E 113°55'0 0.0
2016-Jul-24 15:30N 22°29' E 113°55'0 0.2
2016-Jul-24 13:34N 22°28' E 113°55'1716.8
2016-Jul-24 12:32N 22°17' E 114°09'1717.6
2016-Jul-24 11:33N 22°28' E 113°55'1111.3
2016-Jul-24 10:33N 22°21' E 114°05'2 2.5
2016-Jul-24 09:33N 22°19' E 114°06'1413.8
2016-Jul-24 08:33N 22°28' E 113°55'1716.9
2016-Jul-24 07:33N 22°17' E 114°09'1616.5
2016-Jul-24 06:33N 22°26' E 113°54'3 2.2
2016-Jul-24 05:23N 22°29' E 113°55'0 0.0
2016-Jul-24 04:29N 22°29' E 113°55'0 0.0
2016-Jul-24 03:29N 22°29' E 113°55'0 0.0
2016-Jul-24 02:29N 22°29' E 113°55'0 0.0
2016-Jul-24 01:29N 22°29' E 113°55'0 0.0
2016-Jul-24 00:29N 22°29' E 113°55'0 0.0
2016-Jul-23 23:29N 22°29' E 113°55'0 0.0
2016-Jul-23 22:23N 22°29' E 113°55'0 0.0
2016-Jul-23 21:29N 22°29' E 113°55'0 0.0
2016-Jul-23 20:28N 22°29' E 113°55'0 0.0
2016-Jul-23 19:29N 22°29' E 113°55'0 0.0
2016-Jul-23 18:29N 22°29' E 113°55'0 0.0
2016-Jul-23 17:22N 22°29' E 113°55'0 0.0
2016-Jul-23 16:29N 22°29' E 113°55'0 0.0
2016-Jul-23 15:17N 22°29' E 113°55'0 0.0
2016-Jul-23 14:28N 22°29' E 113°55'2 2.0
2016-Jul-23 13:33N 22°27' E 113°55'1716.6
2016-Jul-23 12:33N 22°17' E 114°09'1717.1
2016-Jul-23 11:34N 22°28' E 113°55'1211.7
2016-Jul-23 10:31N 22°20' E 114°05'9 7.6
2016-Jul-23 09:18N 22°22' E 113°55'4 5.7
2016-Jul-23 08:34N 22°26' E 113°54'1613.8
2016-Jul-23 07:23N 22°17' E 114°09'1416.6
2016-Jul-23 06:32N 22°22' E 113°55'6 3.1
2016-Jul-23 04:27N 22°29' E 113°55'0 0.0
2016-Jul-23 03:33N 22°29' E 113°55'0 0.0
2016-Jul-23 02:33N 22°29' E 113°55'0 0.0
2016-Jul-23 01:27N 22°29' E 113°55'0 0.0
2016-Jul-23 00:27N 22°29' E 113°55'0 0.0
2016-Jul-22 23:33N 22°29' E 113°55'0 0.0
2016-Jul-22 22:33N 22°29' E 113°55'0 0.0
2016-Jul-22 21:15N 22°29' E 113°55'0 0.0
2016-Jul-22 20:33N 22°29' E 113°55'0 0.0
2016-Jul-22 19:33N 22°29' E 113°55'0 0.0
2016-Jul-22 18:33N 22°29' E 113°55'0 0.0
2016-Jul-22 17:27N 22°29' E 113°55'0 0.0
2016-Jul-22 16:15N 22°29' E 113°55'0 0.0
2016-Jul-22 15:33N 22°29' E 113°55'0 0.0
2016-Jul-22 14:33N 22°29' E 113°55'2110.0
2016-Jul-22 12:28N 22°13' E 113°40'2123.3
2016-Jul-22 11:33N 22°29' E 113°55'1312.0
2016-Jul-22 10:29N 22°20' E 114°05'2 1.6
2016-Jul-22 09:33N 22°21' E 114°03'1110.9
2016-Jul-22 08:33N 22°28' E 113°55'1716.0
2016-Jul-22 07:29N 22°17' E 114°09'17 5.8
2016-Jul-22 04:34N 22°28' E 113°55'1717.0
2016-Jul-22 03:33N 22°17' E 114°09'1514.6
2016-Jul-22 02:34N 22°23' E 113°55'6 5.7
2016-Jul-22 01:31N 22°29' E 113°55'0 0.0
2016-Jul-22 00:31N 22°29' E 113°55'0 0.0
2016-Jul-21 23:25N 22°29' E 113°55'0 0.0
2016-Jul-21 22:31N 22°29' E 113°55'0 0.0
2016-Jul-21 21:31N 22°29' E 113°55'0 0.0
2016-Jul-21 20:31N 22°29' E 113°55'0 0.0
2016-Jul-21 19:13N 22°29' E 113°55'0 0.0
2016-Jul-21 18:31N 22°29' E 113°55'0 0.0
2016-Jul-21 17:31N 22°29' E 113°55'0 0.0
2016-Jul-21 16:31N 22°29' E 113°55'0 0.0
2016-Jul-21 15:31N 22°29' E 113°55'0 0.0
2016-Jul-21 14:07N 22°29' E 113°55'0 0.0
2016-Jul-21 13:31N 22°29' E 113°55'0 0.0
2016-Jul-21 12:31N 22°29' E 113°55'0 0.0
2016-Jul-21 11:19N 22°29' E 113°55'0 0.0
2016-Jul-21 10:19N 22°29' E 113°55'0 0.0
2016-Jul-21 09:31N 22°29' E 113°55'0 0.0
2016-Jul-21 08:25N 22°29' E 113°55'0 0.0
2016-Jul-21 07:13N 22°29' E 113°55'0 0.0
2016-Jul-21 06:31N 22°29' E 113°55'0 0.0
2016-Jul-21 05:32N 22°29' E 113°55'1313.2
2016-Jul-21 04:33N 22°20' E 114°05'4 2.9
2016-Jul-21 03:17N 22°20' E 114°09'3 2.4
2016-Jul-21 02:08N 22°18' E 114°07'3 1.0
2016-Jul-20 23:21N 22°20' E 114°09'0 0.0
2016-Jul-20 22:21N 22°20' E 114°09'0 0.0
2016-Jul-20 21:27N 22°20' E 114°09'0 0.0
2016-Jul-20 20:33N 22°20' E 114°09'0 0.0
2016-Jul-20 19:21N 22°20' E 114°09'0 0.0
2016-Jul-20 18:27N 22°20' E 114°09'0 0.0
2016-Jul-20 16:33N 22°20' E 114°09'0 0.0
2016-Jul-20 14:27N 22°20' E 114°09'0 0.0
2016-Jul-20 13:27N 22°20' E 114°09'0 0.0
2016-Jul-20 12:09N 22°20' E 114°09'0 0.0
2016-Jul-20 11:33N 22°20' E 114°09'0 0.0
2016-Jul-20 07:27N 22°20' E 114°09'0 0.0
2016-Jul-20 05:27N 22°20' E 114°09'0 0.0
2016-Jul-20 04:33N 22°20' E 114°09'0 0.0
2016-Jul-20 03:33N 22°20' E 114°09'  
Track history (hours):
 
Tides and Currents Weather Stations Pressure Air Temp Water Temp Dewpoint Dewpoint Depression Visibility Wind Speed Wind Dir Waves Ship Positions

Xun Long 5

Last reported at 2016-Jul-29 11:32 UTC. Time now 2016-Jul-30 03:27 UTC.
Position N 22°28' E 113°51'.

Length 34 m; draft 1.4 m.

Type: High speed craft. MMSI: 413471870.

Date/timePositionNaut miles runAvg speedWind from/ knotsBaromVisibWave heightAir tempDewpointWater temp
2016-Jul-29 11:32N 22°28' E 113°51'1512.9
2016-Jul-29 10:22N 22°20' E 114°05'2 2.5
2016-Jul-29 09:33N 22°21' E 114°03'1110.8
2016-Jul-29 08:32N 22°29' E 113°55'1818.1
2016-Jul-29 07:33N 22°17' E 114°09'1515.0
2016-Jul-29 06:33N 22°23' E 113°54'5 5.1
2016-Jul-29 05:31N 22°29' E 113°55'0 0.1
2016-Jul-29 04:33N 22°29' E 113°55'1813.7
2016-Jul-29 03:16N 22°17' E 114°09'1621.5
2016-Jul-29 02:33N 22°24' E 113°54'11 8.5
2016-Jul-29 01:17N 22°20' E 114°05'2 2.6
2016-Jul-29 00:33N 22°19' E 114°07'1514.4
2016-Jul-28 23:33N 22°29' E 113°55'0 0.0
2016-Jul-28 22:33N 22°29' E 113°55'0 0.0
2016-Jul-28 21:27N 22°29' E 113°55'0 0.0
2016-Jul-28 20:32N 22°29' E 113°55'0 0.0
2016-Jul-28 19:32N 22°29' E 113°55'0 0.0
2016-Jul-28 17:27N 22°29' E 113°55'0 0.0
2016-Jul-28 16:33N 22°29' E 113°55'0 0.0
2016-Jul-28 15:33N 22°29' E 113°55'0 0.0
2016-Jul-28 14:32N 22°29' E 113°55'7 6.0
2016-Jul-28 13:25N 22°22' E 113°55'7 7.8
2016-Jul-28 12:33N 22°29' E 113°55'2110.7
2016-Jul-28 10:34N 22°13' E 113°40'2121.1
2016-Jul-28 09:33N 22°29' E 113°55'4 3.6
2016-Jul-28 08:33N 22°25' E 113°53'3 1.5
2016-Jul-28 06:25N 22°23' E 113°51'2 2.9
2016-Jul-28 05:33N 22°25' E 113°53'1 0.6
2016-Jul-28 03:31N 22°24' E 113°52'16 6.5
2016-Jul-28 01:07N 22°12' E 113°41'1627.3
2016-Jul-28 00:32N 22°24' E 113°52'5 4.9
2016-Jul-27 23:30N 22°29' E 113°55'0 0.0
2016-Jul-27 21:24N 22°29' E 113°55'0 0.0
2016-Jul-27 19:30N 22°29' E 113°55'0 0.0
2016-Jul-27 18:24N 22°29' E 113°55'0 0.0
2016-Jul-27 17:30N 22°29' E 113°55'0 0.0
2016-Jul-27 16:30N 22°29' E 113°55'0 0.0
2016-Jul-27 15:30N 22°29' E 113°55'0 0.0
2016-Jul-27 14:30N 22°29' E 113°55'0 0.0
2016-Jul-27 13:24N 22°29' E 113°55'0 0.0
2016-Jul-27 12:24N 22°29' E 113°55'0 0.0
2016-Jul-27 11:30N 22°29' E 113°55'0 0.0
2016-Jul-27 10:24N 22°29' E 113°55'0 0.0
2016-Jul-27 09:30N 22°29' E 113°55'4 4.7
2016-Jul-27 08:33N 22°25' E 113°53'1813.1
2016-Jul-27 07:09N 22°11' E 113°39'1825.1
2016-Jul-27 06:26N 22°24' E 113°52'7 8.0
2016-Jul-27 05:31N 22°19' E 113°47'11 9.2
2016-Jul-27 04:22N 22°11' E 113°39'1923.8
2016-Jul-27 03:33N 22°26' E 113°53'20 8.4
2016-Jul-27 01:11N 22°11' E 113°38'1827.0
2016-Jul-27 00:31N 22°24' E 113°52'5 5.4
2016-Jul-26 23:31N 22°29' E 113°55'0 0.0
2016-Jul-26 22:31N 22°29' E 113°55'0 0.0
2016-Jul-26 21:31N 22°29' E 113°55'0 0.0
2016-Jul-26 20:31N 22°29' E 113°55'0 0.0
2016-Jul-26 19:31N 22°29' E 113°55'0 0.0
2016-Jul-26 18:31N 22°29' E 113°55'0 0.0
2016-Jul-26 17:31N 22°29' E 113°55'0 0.0
2016-Jul-26 16:25N 22°29' E 113°55'0 0.0
2016-Jul-26 15:31N 22°29' E 113°55'0 0.0
2016-Jul-26 14:31N 22°29' E 113°55'0 0.0
2016-Jul-26 13:25N 22°29' E 113°55'0 0.0
2016-Jul-26 12:31N 22°29' E 113°55'0 0.4
2016-Jul-26 11:33N 22°28' E 113°55'5 2.1
2016-Jul-26 09:09N 22°24' E 113°52'4 7.5
2016-Jul-26 08:33N 22°28' E 113°55'20 9.4
2016-Jul-26 06:27N 22°13' E 113°40'2122.7
2016-Jul-26 05:33N 22°29' E 113°55'21 9.9
2016-Jul-26 03:26N 22°13' E 113°40'2121.3
2016-Jul-26 02:27N 22°29' E 113°55'10 9.9
2016-Jul-26 01:23N 22°21' E 114°02'6 7.1
2016-Jul-26 00:34N 22°18' E 114°08'1614.1
2016-Jul-25 23:25N 22°29' E 113°55'0 0.0
2016-Jul-25 22:31N 22°29' E 113°55'0 0.0
2016-Jul-25 21:31N 22°29' E 113°55'0 0.0
2016-Jul-25 20:31N 22°29' E 113°55'0 0.0
2016-Jul-25 19:31N 22°29' E 113°55'0 0.0
2016-Jul-25 18:19N 22°29' E 113°55'0 0.0
2016-Jul-25 17:25N 22°29' E 113°55'0 0.0
2016-Jul-25 15:31N 22°29' E 113°55'0 0.0
2016-Jul-25 14:29N 22°29' E 113°55'7 6.1
2016-Jul-25 13:23N 22°22' E 113°55'7 8.0
2016-Jul-25 12:33N 22°29' E 113°55'2110.4
2016-Jul-25 10:33N 22°13' E 113°40'2121.1
2016-Jul-25 09:33N 22°29' E 113°55'2 2.4
2016-Jul-25 08:33N 22°26' E 113°54'3 1.4
2016-Jul-25 06:23N 22°24' E 113°52'1 1.5
2016-Jul-25 05:33N 22°25' E 113°53'1913.9
2016-Jul-25 04:12N 22°11' E 113°39'1625.1
2016-Jul-25 03:33N 22°23' E 113°51'15 6.4
2016-Jul-25 01:13N 22°13' E 113°40'1827.3
2016-Jul-25 00:33N 22°25' E 113°53'4 3.2
2016-Jul-24 23:24N 22°29' E 113°55'0 0.0
2016-Jul-24 22:30N 22°29' E 113°55'0 0.0
2016-Jul-24 21:24N 22°29' E 113°55'0 0.0
2016-Jul-24 20:30N 22°29' E 113°55'0 0.0
2016-Jul-24 19:30N 22°29' E 113°55'0 0.0
2016-Jul-24 18:30N 22°29' E 113°55'0 0.0
2016-Jul-24 17:30N 22°29' E 113°55'0 0.0
2016-Jul-24 16:30N 22°29' E 113°55'0 0.0
2016-Jul-24 15:30N 22°29' E 113°55'0 0.2
2016-Jul-24 13:34N 22°28' E 113°55'1716.8
2016-Jul-24 12:32N 22°17' E 114°09'1717.6
2016-Jul-24 11:33N 22°28' E 113°55'1111.3
2016-Jul-24 10:33N 22°21' E 114°05'2 2.5
2016-Jul-24 09:33N 22°19' E 114°06'1413.8
2016-Jul-24 08:33N 22°28' E 113°55'1716.9
2016-Jul-24 07:33N 22°17' E 114°09'1616.5
2016-Jul-24 06:33N 22°26' E 113°54'3 2.2
2016-Jul-24 05:23N 22°29' E 113°55'0 0.0
2016-Jul-24 04:29N 22°29' E 113°55'0 0.0
2016-Jul-24 03:29N 22°29' E 113°55'0 0.0
2016-Jul-24 02:29N 22°29' E 113°55'0 0.0
2016-Jul-24 01:29N 22°29' E 113°55'0 0.0
2016-Jul-24 00:29N 22°29' E 113°55'0 0.0
2016-Jul-23 23:29N 22°29' E 113°55'0 0.0
2016-Jul-23 22:23N 22°29' E 113°55'0 0.0
2016-Jul-23 21:29N 22°29' E 113°55'0 0.0
2016-Jul-23 20:28N 22°29' E 113°55'0 0.0
2016-Jul-23 19:29N 22°29' E 113°55'0 0.0
2016-Jul-23 18:29N 22°29' E 113°55'0 0.0
2016-Jul-23 17:22N 22°29' E 113°55'0 0.0
2016-Jul-23 16:29N 22°29' E 113°55'0 0.0
2016-Jul-23 15:17N 22°29' E 113°55'0 0.0
2016-Jul-23 14:28N 22°29' E 113°55'2 2.0
2016-Jul-23 13:33N 22°27' E 113°55'1716.6
2016-Jul-23 12:33N 22°17' E 114°09'1717.1
2016-Jul-23 11:34N 22°28' E 113°55'1211.7
2016-Jul-23 10:31N 22°20' E 114°05'9 7.6
2016-Jul-23 09:18N 22°22' E 113°55'4 5.7
2016-Jul-23 08:34N 22°26' E 113°54'1613.8
2016-Jul-23 07:23N 22°17' E 114°09'1416.6
2016-Jul-23 06:32N 22°22' E 113°55'6 3.1
2016-Jul-23 04:27N 22°29' E 113°55'0 0.0
2016-Jul-23 03:33N 22°29' E 113°55'0 0.0
2016-Jul-23 02:33N 22°29' E 113°55'0 0.0
2016-Jul-23 01:27N 22°29' E 113°55'0 0.0
2016-Jul-23 00:27N 22°29' E 113°55'0 0.0
2016-Jul-22 23:33N 22°29' E 113°55'0 0.0
2016-Jul-22 22:33N 22°29' E 113°55'0 0.0
2016-Jul-22 21:15N 22°29' E 113°55'0 0.0
2016-Jul-22 20:33N 22°29' E 113°55'0 0.0
2016-Jul-22 19:33N 22°29' E 113°55'0 0.0
2016-Jul-22 18:33N 22°29' E 113°55'0 0.0
2016-Jul-22 17:27N 22°29' E 113°55'0 0.0
2016-Jul-22 16:15N 22°29' E 113°55'0 0.0
2016-Jul-22 15:33N 22°29' E 113°55'0 0.0
2016-Jul-22 14:33N 22°29' E 113°55'2110.0
2016-Jul-22 12:28N 22°13' E 113°40'2123.3
2016-Jul-22 11:33N 22°29' E 113°55'1312.0
2016-Jul-22 10:29N 22°20' E 114°05'2 1.6
2016-Jul-22 09:33N 22°21' E 114°03'1110.9
2016-Jul-22 08:33N 22°28' E 113°55'1716.0
2016-Jul-22 07:29N 22°17' E 114°09'17 5.8
2016-Jul-22 04:34N 22°28' E 113°55'1717.0
2016-Jul-22 03:33N 22°17' E 114°09'1514.6
2016-Jul-22 02:34N 22°23' E 113°55'6 5.7
2016-Jul-22 01:31N 22°29' E 113°55'0 0.0
2016-Jul-22 00:31N 22°29' E 113°55'0 0.0
2016-Jul-21 23:25N 22°29' E 113°55'0 0.0
2016-Jul-21 22:31N 22°29' E 113°55'0 0.0
2016-Jul-21 21:31N 22°29' E 113°55'0 0.0
2016-Jul-21 20:31N 22°29' E 113°55'0 0.0
2016-Jul-21 19:13N 22°29' E 113°55'0 0.0
2016-Jul-21 18:31N 22°29' E 113°55'0 0.0
2016-Jul-21 17:31N 22°29' E 113°55'0 0.0
2016-Jul-21 16:31N 22°29' E 113°55'0 0.0
2016-Jul-21 15:31N 22°29' E 113°55'0 0.0
2016-Jul-21 14:07N 22°29' E 113°55'0 0.0
2016-Jul-21 13:31N 22°29' E 113°55'0 0.0
2016-Jul-21 12:31N 22°29' E 113°55'0 0.0
2016-Jul-21 11:19N 22°29' E 113°55'0 0.0
2016-Jul-21 10:19N 22°29' E 113°55'0 0.0
2016-Jul-21 09:31N 22°29' E 113°55'0 0.0
2016-Jul-21 08:25N 22°29' E 113°55'0 0.0
2016-Jul-21 07:13N 22°29' E 113°55'0 0.0
2016-Jul-21 06:31N 22°29' E 113°55'0 0.0
2016-Jul-21 05:32N 22°29' E 113°55'1313.2
2016-Jul-21 04:33N 22°20' E 114°05'4 2.9
2016-Jul-21 03:17N 22°20' E 114°09'3 2.4
2016-Jul-21 02:08N 22°18' E 114°07'3 1.0
2016-Jul-20 23:21N 22°20' E 114°09'0 0.0
2016-Jul-20 22:21N 22°20' E 114°09'0 0.0
2016-Jul-20 21:27N 22°20' E 114°09'0 0.0
2016-Jul-20 20:33N 22°20' E 114°09'0 0.0
2016-Jul-20 19:21N 22°20' E 114°09'0 0.0
2016-Jul-20 18:27N 22°20' E 114°09'0 0.0
2016-Jul-20 16:33N 22°20' E 114°09'0 0.0
2016-Jul-20 14:27N 22°20' E 114°09'0 0.0
2016-Jul-20 13:27N 22°20' E 114°09'0 0.0
2016-Jul-20 12:09N 22°20' E 114°09'0 0.0
2016-Jul-20 11:33N 22°20' E 114°09'0 0.0
2016-Jul-20 07:27N 22°20' E 114°09'0 0.0
2016-Jul-20 05:27N 22°20' E 114°09'0 0.0
2016-Jul-20 04:33N 22°20' E 114°09'0 0.0
2016-Jul-20 03:33N 22°20' E 114°09'  

Dump ship's entire track history